sensor_id;sensor_type;location;lat;lon;timestamp;temperature;humidity
20750;DHT22;10535;50.664;4.564;2023-05-27T00:01:11;11.60;99.90
20750;DHT22;10535;50.664;4.564;2023-05-27T00:03:38;11.60;99.90
20750;DHT22;10535;50.664;4.564;2023-05-27T00:06:06;11.50;99.90
20750;DHT22;10535;50.664;4.564;2023-05-27T00:08:31;11.50;99.90
20750;DHT22;10535;50.664;4.564;2023-05-27T00:10:57;11.40;99.90
20750;DHT22;10535;50.664;4.564;2023-05-27T00:13:23;11.40;99.90
20750;DHT22;10535;50.664;4.564;2023-05-27T00:15:49;11.30;99.90
20750;DHT22;10535;50.664;4.564;2023-05-27T00:18:15;11.30;99.90
20750;DHT22;10535;50.664;4.564;2023-05-27T00:20:40;11.20;99.90
20750;DHT22;10535;50.664;4.564;2023-05-27T00:23:06;11.20;99.90
20750;DHT22;10535;50.664;4.564;2023-05-27T00:25:32;11.20;99.90
20750;DHT22;10535;50.664;4.564;2023-05-27T00:27:59;11.20;99.90
20750;DHT22;10535;50.664;4.564;2023-05-27T00:30:24;11.20;99.90
20750;DHT22;10535;50.664;4.564;2023-05-27T00:32:50;11.10;99.90
20750;DHT22;10535;50.664;4.564;2023-05-27T00:35:16;11.00;99.90
20750;DHT22;10535;50.664;4.564;2023-05-27T00:37:42;11.10;99.90
20750;DHT22;10535;50.664;4.564;2023-05-27T00:40:09;11.00;99.90
20750;DHT22;10535;50.664;4.564;2023-05-27T00:42:36;10.90;99.90
20750;DHT22;10535;50.664;4.564;2023-05-27T00:45:03;10.90;99.90
20750;DHT22;10535;50.664;4.564;2023-05-27T00:47:31;10.90;99.90
20750;DHT22;10535;50.664;4.564;2023-05-27T00:49:57;10.90;99.90
20750;DHT22;10535;50.664;4.564;2023-05-27T00:52:24;10.80;99.90
20750;DHT22;10535;50.664;4.564;2023-05-27T00:54:51;10.80;99.90
20750;DHT22;10535;50.664;4.564;2023-05-27T00:57:17;10.80;99.90
20750;DHT22;10535;50.664;4.564;2023-05-27T00:59:43;10.90;99.90
20750;DHT22;10535;50.664;4.564;2023-05-27T01:02:11;10.90;99.90
20750;DHT22;10535;50.664;4.564;2023-05-27T01:04:37;10.70;99.90
20750;DHT22;10535;50.664;4.564;2023-05-27T01:07:21;10.70;99.90
20750;DHT22;10535;50.664;4.564;2023-05-27T01:12:40;10.50;99.90
20750;DHT22;10535;50.664;4.564;2023-05-27T01:15:08;10.50;99.90
20750;DHT22;10535;50.664;4.564;2023-05-27T01:17:35;10.40;99.90
20750;DHT22;10535;50.664;4.564;2023-05-27T01:20:04;10.40;99.90
20750;DHT22;10535;50.664;4.564;2023-05-27T01:22:31;10.40;99.90
20750;DHT22;10535;50.664;4.564;2023-05-27T01:24:57;10.40;99.90
20750;DHT22;10535;50.664;4.564;2023-05-27T01:27:29;10.40;99.90
20750;DHT22;10535;50.664;4.564;2023-05-27T01:29:55;10.40;99.90
20750;DHT22;10535;50.664;4.564;2023-05-27T01:35:08;10.40;99.90
20750;DHT22;10535;50.664;4.564;2023-05-27T01:37:37;10.50;99.90
20750;DHT22;10535;50.664;4.564;2023-05-27T01:40:07;10.30;99.90
20750;DHT22;10535;50.664;4.564;2023-05-27T01:42:35;10.10;99.90
20750;DHT22;10535;50.664;4.564;2023-05-27T01:45:05;10.10;99.90
20750;DHT22;10535;50.664;4.564;2023-05-27T01:47:32;10.20;99.90
20750;DHT22;10535;50.664;4.564;2023-05-27T01:49:58;10.20;99.90
20750;DHT22;10535;50.664;4.564;2023-05-27T01:52:26;10.20;99.90
20750;DHT22;10535;50.664;4.564;2023-05-27T01:54:52;10.10;99.90
20750;DHT22;10535;50.664;4.564;2023-05-27T01:57:18;10.10;99.90
20750;DHT22;10535;50.664;4.564;2023-05-27T01:59:44;10.00;99.90
20750;DHT22;10535;50.664;4.564;2023-05-27T02:02:10;9.90;99.90
20750;DHT22;10535;50.664;4.564;2023-05-27T02:04:36;9.90;99.90
20750;DHT22;10535;50.664;4.564;2023-05-27T02:07:03;9.90;99.90
20750;DHT22;10535;50.664;4.564;2023-05-27T02:09:28;9.90;99.90
20750;DHT22;10535;50.664;4.564;2023-05-27T02:11:54;9.90;99.90
20750;DHT22;10535;50.664;4.564;2023-05-27T02:14:20;9.90;99.90
20750;DHT22;10535;50.664;4.564;2023-05-27T02:16:46;9.80;99.90
20750;DHT22;10535;50.664;4.564;2023-05-27T02:19:15;9.90;99.90
20750;DHT22;10535;50.664;4.564;2023-05-27T02:21:40;9.90;99.90
20750;DHT22;10535;50.664;4.564;2023-05-27T02:24:06;9.90;99.90
20750;DHT22;10535;50.664;4.564;2023-05-27T02:26:32;9.80;99.90
20750;DHT22;10535;50.664;4.564;2023-05-27T02:28:58;9.70;99.90
20750;DHT22;10535;50.664;4.564;2023-05-27T02:31:24;9.70;99.90
20750;DHT22;10535;50.664;4.564;2023-05-27T02:33:50;9.70;99.90
20750;DHT22;10535;50.664;4.564;2023-05-27T02:36:16;9.80;99.90
20750;DHT22;10535;50.664;4.564;2023-05-27T02:38:42;9.80;99.90
20750;DHT22;10535;50.664;4.564;2023-05-27T02:41:08;9.70;99.90
20750;DHT22;10535;50.664;4.564;2023-05-27T02:43:33;9.80;99.90
20750;DHT22;10535;50.664;4.564;2023-05-27T02:46:00;9.80;99.90
20750;DHT22;10535;50.664;4.564;2023-05-27T02:48:27;9.70;99.90
20750;DHT22;10535;50.664;4.564;2023-05-27T02:50:52;9.70;99.90
20750;DHT22;10535;50.664;4.564;2023-05-27T02:53:18;9.60;99.90
20750;DHT22;10535;50.664;4.564;2023-05-27T02:55:43;9.50;99.90
20750;DHT22;10535;50.664;4.564;2023-05-27T02:58:09;9.50;99.90
20750;DHT22;10535;50.664;4.564;2023-05-27T03:00:35;9.50;99.90
20750;DHT22;10535;50.664;4.564;2023-05-27T03:03:01;9.60;99.90
20750;DHT22;10535;50.664;4.564;2023-05-27T03:05:29;9.50;99.90
20750;DHT22;10535;50.664;4.564;2023-05-27T03:07:55;9.50;99.90
20750;DHT22;10535;50.664;4.564;2023-05-27T03:10:20;9.40;99.90
20750;DHT22;10535;50.664;4.564;2023-05-27T03:12:46;9.30;99.90
20750;DHT22;10535;50.664;4.564;2023-05-27T03:15:12;9.30;99.90
20750;DHT22;10535;50.664;4.564;2023-05-27T03:17:38;9.30;99.90
20750;DHT22;10535;50.664;4.564;2023-05-27T03:20:07;9.30;99.90
20750;DHT22;10535;50.664;4.564;2023-05-27T03:22:34;9.30;99.90
20750;DHT22;10535;50.664;4.564;2023-05-27T03:25:01;9.30;99.90
20750;DHT22;10535;50.664;4.564;2023-05-27T03:27:27;9.20;99.90
20750;DHT22;10535;50.664;4.564;2023-05-27T03:29:53;9.20;99.90
20750;DHT22;10535;50.664;4.564;2023-05-27T03:32:18;9.10;99.90
20750;DHT22;10535;50.664;4.564;2023-05-27T03:34:44;9.10;99.90
20750;DHT22;10535;50.664;4.564;2023-05-27T03:37:10;9.00;99.90
20750;DHT22;10535;50.664;4.564;2023-05-27T03:39:35;9.30;99.90
20750;DHT22;10535;50.664;4.564;2023-05-27T03:42:01;9.00;99.90
20750;DHT22;10535;50.664;4.564;2023-05-27T03:44:27;9.10;99.90
20750;DHT22;10535;50.664;4.564;2023-05-27T03:46:52;9.10;99.90
20750;DHT22;10535;50.664;4.564;2023-05-27T03:49:19;9.10;99.90
20750;DHT22;10535;50.664;4.564;2023-05-27T03:51:44;9.10;99.90
20750;DHT22;10535;50.664;4.564;2023-05-27T03:54:10;8.90;99.90
20750;DHT22;10535;50.664;4.564;2023-05-27T03:56:36;9.00;99.90
20750;DHT22;10535;50.664;4.564;2023-05-27T03:59:01;9.00;99.90
20750;DHT22;10535;50.664;4.564;2023-05-27T04:01:27;9.00;99.90
20750;DHT22;10535;50.664;4.564;2023-05-27T04:03:53;9.10;99.90
20750;DHT22;10535;50.664;4.564;2023-05-27T04:06:18;9.10;99.90
20750;DHT22;10535;50.664;4.564;2023-05-27T04:08:44;9.00;99.90
20750;DHT22;10535;50.664;4.564;2023-05-27T04:11:12;9.00;99.90
20750;DHT22;10535;50.664;4.564;2023-05-27T04:13:38;9.10;99.90
20750;DHT22;10535;50.664;4.564;2023-05-27T04:16:04;9.30;99.90
20750;DHT22;10535;50.664;4.564;2023-05-27T04:18:30;9.10;99.90
20750;DHT22;10535;50.664;4.564;2023-05-27T04:20:56;9.10;99.90
20750;DHT22;10535;50.664;4.564;2023-05-27T04:23:23;9.20;99.90
20750;DHT22;10535;50.664;4.564;2023-05-27T04:25:50;9.10;99.90
20750;DHT22;10535;50.664;4.564;2023-05-27T04:28:17;9.10;99.90
20750;DHT22;10535;50.664;4.564;2023-05-27T04:30:42;9.20;99.90
20750;DHT22;10535;50.664;4.564;2023-05-27T04:33:09;9.40;99.90
20750;DHT22;10535;50.664;4.564;2023-05-27T04:35:34;9.40;99.90
20750;DHT22;10535;50.664;4.564;2023-05-27T04:38:00;9.50;99.90
20750;DHT22;10535;50.664;4.564;2023-05-27T04:40:29;9.50;99.90
20750;DHT22;10535;50.664;4.564;2023-05-27T04:42:56;9.50;99.90
20750;DHT22;10535;50.664;4.564;2023-05-27T04:45:22;9.50;99.90
20750;DHT22;10535;50.664;4.564;2023-05-27T04:47:47;9.40;99.90
20750;DHT22;10535;50.664;4.564;2023-05-27T04:50:13;9.70;99.90
20750;DHT22;10535;50.664;4.564;2023-05-27T04:52:39;9.70;99.90
20750;DHT22;10535;50.664;4.564;2023-05-27T04:55:08;9.90;99.90
20750;DHT22;10535;50.664;4.564;2023-05-27T04:57:35;9.80;99.90
20750;DHT22;10535;50.664;4.564;2023-05-27T05:00:02;9.90;99.90
20750;DHT22;10535;50.664;4.564;2023-05-27T05:02:30;9.90;99.90
20750;DHT22;10535;50.664;4.564;2023-05-27T05:05:08;10.00;99.90
20750;DHT22;10535;50.664;4.564;2023-05-27T05:07:34;10.20;99.90
20750;DHT22;10535;50.664;4.564;2023-05-27T05:10:03;10.70;99.90
20750;DHT22;10535;50.664;4.564;2023-05-27T05:12:30;10.90;99.90
20750;DHT22;10535;50.664;4.564;2023-05-27T05:14:57;11.10;99.90
20750;DHT22;10535;50.664;4.564;2023-05-27T05:17:23;11.30;99.90
20750;DHT22;10535;50.664;4.564;2023-05-27T05:19:51;11.10;99.90
20750;DHT22;10535;50.664;4.564;2023-05-27T05:22:17;11.00;99.90
20750;DHT22;10535;50.664;4.564;2023-05-27T05:24:48;11.30;99.90
20750;DHT22;10535;50.664;4.564;2023-05-27T05:27:14;11.50;99.90
20750;DHT22;10535;50.664;4.564;2023-05-27T05:29:40;11.70;99.90
20750;DHT22;10535;50.664;4.564;2023-05-27T05:32:06;12.00;99.90
20750;DHT22;10535;50.664;4.564;2023-05-27T05:34:32;11.70;99.90
20750;DHT22;10535;50.664;4.564;2023-05-27T05:36:58;11.60;99.90
20750;DHT22;10535;50.664;4.564;2023-05-27T05:39:23;11.80;99.90
20750;DHT22;10535;50.664;4.564;2023-05-27T05:41:51;11.50;99.90
20750;DHT22;10535;50.664;4.564;2023-05-27T05:44:17;11.30;99.90
20750;DHT22;10535;50.664;4.564;2023-05-27T05:46:43;11.40;99.90
20750;DHT22;10535;50.664;4.564;2023-05-27T05:49:09;11.50;99.90
20750;DHT22;10535;50.664;4.564;2023-05-27T05:51:35;11.50;99.90
20750;DHT22;10535;50.664;4.564;2023-05-27T05:54:00;11.80;99.90
20750;DHT22;10535;50.664;4.564;2023-05-27T05:56:26;12.10;99.90
20750;DHT22;10535;50.664;4.564;2023-05-27T05:58:52;12.00;99.90
20750;DHT22;10535;50.664;4.564;2023-05-27T06:01:18;12.20;99.90
20750;DHT22;10535;50.664;4.564;2023-05-27T06:03:44;12.30;99.90
20750;DHT22;10535;50.664;4.564;2023-05-27T06:06:11;12.00;99.90
20750;DHT22;10535;50.664;4.564;2023-05-27T06:08:36;12.00;99.90
20750;DHT22;10535;50.664;4.564;2023-05-27T06:11:02;11.60;99.90
20750;DHT22;10535;50.664;4.564;2023-05-27T06:13:28;11.70;99.90
20750;DHT22;10535;50.664;4.564;2023-05-27T06:15:53;11.60;99.90
20750;DHT22;10535;50.664;4.564;2023-05-27T06:18:23;11.70;99.90
20750;DHT22;10535;50.664;4.564;2023-05-27T06:20:49;11.60;99.90
20750;DHT22;10535;50.664;4.564;2023-05-27T06:23:14;11.80;99.90
20750;DHT22;10535;50.664;4.564;2023-05-27T06:25:41;12.20;99.90
20750;DHT22;10535;50.664;4.564;2023-05-27T06:28:07;12.50;99.90
20750;DHT22;10535;50.664;4.564;2023-05-27T06:30:32;12.50;99.90
20750;DHT22;10535;50.664;4.564;2023-05-27T06:32:58;12.50;99.90
20750;DHT22;10535;50.664;4.564;2023-05-27T06:35:25;12.60;99.90
20750;DHT22;10535;50.664;4.564;2023-05-27T06:37:54;13.00;99.90
20750;DHT22;10535;50.664;4.564;2023-05-27T06:40:43;13.60;99.90
20750;DHT22;10535;50.664;4.564;2023-05-27T06:43:08;13.30;99.90
20750;DHT22;10535;50.664;4.564;2023-05-27T06:45:34;13.50;99.90
20750;DHT22;10535;50.664;4.564;2023-05-27T06:47:59;13.40;99.90
20750;DHT22;10535;50.664;4.564;2023-05-27T06:50:25;13.00;99.90
20750;DHT22;10535;50.664;4.564;2023-05-27T06:52:51;13.20;99.90
20750;DHT22;10535;50.664;4.564;2023-05-27T06:55:17;13.20;99.90
20750;DHT22;10535;50.664;4.564;2023-05-27T06:57:43;13.40;99.90
20750;DHT22;10535;50.664;4.564;2023-05-27T07:00:09;13.70;99.90
20750;DHT22;10535;50.664;4.564;2023-05-27T07:02:35;14.30;99.90
20750;DHT22;10535;50.664;4.564;2023-05-27T07:05:00;14.60;99.90
20750;DHT22;10535;50.664;4.564;2023-05-27T07:07:26;15.10;99.90
20750;DHT22;10535;50.664;4.564;2023-05-27T07:09:52;15.60;99.90
20750;DHT22;10535;50.664;4.564;2023-05-27T07:12:18;15.60;99.90
20750;DHT22;10535;50.664;4.564;2023-05-27T07:14:44;15.00;99.90
20750;DHT22;10535;50.664;4.564;2023-05-27T07:17:09;15.60;99.90
20750;DHT22;10535;50.664;4.564;2023-05-27T07:19:35;16.10;99.90
20750;DHT22;10535;50.664;4.564;2023-05-27T07:22:00;15.80;99.90
20750;DHT22;10535;50.664;4.564;2023-05-27T07:24:26;16.40;99.90
20750;DHT22;10535;50.664;4.564;2023-05-27T07:26:52;16.00;99.90
20750;DHT22;10535;50.664;4.564;2023-05-27T07:29:18;15.10;99.90
20750;DHT22;10535;50.664;4.564;2023-05-27T07:31:45;14.70;99.90
20750;DHT22;10535;50.664;4.564;2023-05-27T07:34:11;15.30;99.90
20750;DHT22;10535;50.664;4.564;2023-05-27T07:36:37;15.30;99.90
20750;DHT22;10535;50.664;4.564;2023-05-27T07:39:03;15.80;99.90
20750;DHT22;10535;50.664;4.564;2023-05-27T07:41:29;15.90;99.90
20750;DHT22;10535;50.664;4.564;2023-05-27T07:43:55;15.40;99.90
20750;DHT22;10535;50.664;4.564;2023-05-27T07:46:21;14.80;99.90
20750;DHT22;10535;50.664;4.564;2023-05-27T07:48:47;14.90;99.90
20750;DHT22;10535;50.664;4.564;2023-05-27T07:51:14;15.00;99.90
20750;DHT22;10535;50.664;4.564;2023-05-27T07:53:40;15.00;99.90
20750;DHT22;10535;50.664;4.564;2023-05-27T07:56:05;14.80;99.90
20750;DHT22;10535;50.664;4.564;2023-05-27T07:58:32;14.80;99.90
20750;DHT22;10535;50.664;4.564;2023-05-27T08:00:58;14.80;99.90
20750;DHT22;10535;50.664;4.564;2023-05-27T08:03:24;14.90;99.90
20750;DHT22;10535;50.664;4.564;2023-05-27T08:05:50;14.80;99.90
20750;DHT22;10535;50.664;4.564;2023-05-27T08:08:15;14.80;99.90
20750;DHT22;10535;50.664;4.564;2023-05-27T08:10:41;14.60;99.90
20750;DHT22;10535;50.664;4.564;2023-05-27T08:13:07;14.80;99.90
20750;DHT22;10535;50.664;4.564;2023-05-27T08:15:32;15.40;99.90
20750;DHT22;10535;50.664;4.564;2023-05-27T08:17:58;16.00;99.90
20750;DHT22;10535;50.664;4.564;2023-05-27T08:20:25;15.90;99.90
20750;DHT22;10535;50.664;4.564;2023-05-27T08:22:50;16.20;99.90
20750;DHT22;10535;50.664;4.564;2023-05-27T08:25:16;16.30;99.90
20750;DHT22;10535;50.664;4.564;2023-05-27T08:27:50;16.50;99.90
20750;DHT22;10535;50.664;4.564;2023-05-27T08:30:16;16.40;99.90
20750;DHT22;10535;50.664;4.564;2023-05-27T08:32:42;16.10;99.90
20750;DHT22;10535;50.664;4.564;2023-05-27T08:35:09;16.00;99.90
20750;DHT22;10535;50.664;4.564;2023-05-27T08:37:35;16.10;99.90
20750;DHT22;10535;50.664;4.564;2023-05-27T08:40:02;16.10;99.90
20750;DHT22;10535;50.664;4.564;2023-05-27T08:42:30;16.40;99.90
20750;DHT22;10535;50.664;4.564;2023-05-27T08:44:56;16.30;99.90
20750;DHT22;10535;50.664;4.564;2023-05-27T08:47:21;16.20;99.90
20750;DHT22;10535;50.664;4.564;2023-05-27T08:49:47;16.30;99.90
20750;DHT22;10535;50.664;4.564;2023-05-27T08:52:18;16.50;99.90
20750;DHT22;10535;50.664;4.564;2023-05-27T08:54:45;16.80;99.90
20750;DHT22;10535;50.664;4.564;2023-05-27T08:57:12;16.50;99.90
20750;DHT22;10535;50.664;4.564;2023-05-27T08:59:39;16.60;99.90
20750;DHT22;10535;50.664;4.564;2023-05-27T09:02:12;16.20;99.90
20750;DHT22;10535;50.664;4.564;2023-05-27T09:04:39;16.20;99.90
20750;DHT22;10535;50.664;4.564;2023-05-27T09:07:06;16.50;99.90
20750;DHT22;10535;50.664;4.564;2023-05-27T09:09:31;16.70;99.90
20750;DHT22;10535;50.664;4.564;2023-05-27T09:12:04;16.70;99.90
20750;DHT22;10535;50.664;4.564;2023-05-27T09:14:31;16.70;99.90
20750;DHT22;10535;50.664;4.564;2023-05-27T09:16:57;16.80;99.90
20750;DHT22;10535;50.664;4.564;2023-05-27T09:19:30;17.10;99.90
20750;DHT22;10535;50.664;4.564;2023-05-27T09:21:56;17.70;99.90
20750;DHT22;10535;50.664;4.564;2023-05-27T09:24:24;17.70;99.90
20750;DHT22;10535;50.664;4.564;2023-05-27T09:26:51;18.00;99.90
20750;DHT22;10535;50.664;4.564;2023-05-27T09:29:27;18.40;99.90
20750;DHT22;10535;50.664;4.564;2023-05-27T09:31:54;18.50;99.90
20750;DHT22;10535;50.664;4.564;2023-05-27T09:34:23;18.60;99.90
20750;DHT22;10535;50.664;4.564;2023-05-27T09:36:50;19.00;99.90
20750;DHT22;10535;50.664;4.564;2023-05-27T09:39:52;19.00;99.90
20750;DHT22;10535;50.664;4.564;2023-05-27T09:42:18;19.10;99.90
20750;DHT22;10535;50.664;4.564;2023-05-27T09:44:46;18.40;99.90
20750;DHT22;10535;50.664;4.564;2023-05-27T09:47:16;17.80;99.90
20750;DHT22;10535;50.664;4.564;2023-05-27T09:49:43;17.80;99.90
20750;DHT22;10535;50.664;4.564;2023-05-27T09:52:11;17.80;99.90
20750;DHT22;10535;50.664;4.564;2023-05-27T09:54:37;17.80;99.90
20750;DHT22;10535;50.664;4.564;2023-05-27T09:57:04;17.80;99.90
20750;DHT22;10535;50.664;4.564;2023-05-27T09:59:31;18.10;99.90
20750;DHT22;10535;50.664;4.564;2023-05-27T10:01:57;18.30;99.90
20750;DHT22;10535;50.664;4.564;2023-05-27T10:04:23;18.70;99.90
20750;DHT22;10535;50.664;4.564;2023-05-27T10:06:50;18.90;99.90
20750;DHT22;10535;50.664;4.564;2023-05-27T10:09:16;18.70;99.90
20750;DHT22;10535;50.664;4.564;2023-05-27T10:11:43;18.80;99.90
20750;DHT22;10535;50.664;4.564;2023-05-27T10:14:10;18.90;99.90
20750;DHT22;10535;50.664;4.564;2023-05-27T10:16:37;19.20;99.90
20750;DHT22;10535;50.664;4.564;2023-05-27T10:19:09;19.40;99.90
20750;DHT22;10535;50.664;4.564;2023-05-27T10:21:43;19.20;99.90
20750;DHT22;10535;50.664;4.564;2023-05-27T10:24:10;19.40;99.90
20750;DHT22;10535;50.664;4.564;2023-05-27T10:26:41;19.40;99.90
20750;DHT22;10535;50.664;4.564;2023-05-27T10:29:15;19.20;99.90
20750;DHT22;10535;50.664;4.564;2023-05-27T10:31:51;19.60;99.90
20750;DHT22;10535;50.664;4.564;2023-05-27T10:34:17;19.50;99.90
20750;DHT22;10535;50.664;4.564;2023-05-27T10:36:45;18.90;99.90
20750;DHT22;10535;50.664;4.564;2023-05-27T10:39:18;18.80;99.90
20750;DHT22;10535;50.664;4.564;2023-05-27T10:41:51;19.40;99.90
20750;DHT22;10535;50.664;4.564;2023-05-27T10:45:03;19.50;99.90
20750;DHT22;10535;50.664;4.564;2023-05-27T10:47:35;19.80;99.90
20750;DHT22;10535;50.664;4.564;2023-05-27T10:50:13;19.50;99.90
20750;DHT22;10535;50.664;4.564;2023-05-27T10:52:41;19.60;99.90
20750;DHT22;10535;50.664;4.564;2023-05-27T10:55:13;19.50;99.90
20750;DHT22;10535;50.664;4.564;2023-05-27T10:57:39;19.50;99.90
20750;DHT22;10535;50.664;4.564;2023-05-27T11:00:07;19.50;99.90
20750;DHT22;10535;50.664;4.564;2023-05-27T11:02:36;19.50;99.90
20750;DHT22;10535;50.664;4.564;2023-05-27T11:05:14;19.70;99.90
20750;DHT22;10535;50.664;4.564;2023-05-27T11:07:40;19.70;99.90
20750;DHT22;10535;50.664;4.564;2023-05-27T11:10:07;19.80;99.90
20750;DHT22;10535;50.664;4.564;2023-05-27T11:12:34;19.80;99.90
20750;DHT22;10535;50.664;4.564;2023-05-27T11:15:05;19.70;99.90
20750;DHT22;10535;50.664;4.564;2023-05-27T11:17:32;19.80;99.90
20750;DHT22;10535;50.664;4.564;2023-05-27T11:19:59;19.70;99.90
20750;DHT22;10535;50.664;4.564;2023-05-27T11:22:25;19.80;99.90
20750;DHT22;10535;50.664;4.564;2023-05-27T11:25:01;19.80;99.90
20750;DHT22;10535;50.664;4.564;2023-05-27T11:27:37;19.70;99.90
20750;DHT22;10535;50.664;4.564;2023-05-27T11:30:08;19.90;99.90
20750;DHT22;10535;50.664;4.564;2023-05-27T11:32:39;20.10;99.90
20750;DHT22;10535;50.664;4.564;2023-05-27T11:35:13;20.20;99.90
20750;DHT22;10535;50.664;4.564;2023-05-27T11:37:50;20.30;99.90
20750;DHT22;10535;50.664;4.564;2023-05-27T11:40:18;20.50;99.90
20750;DHT22;10535;50.664;4.564;2023-05-27T11:42:45;20.50;99.90
20750;DHT22;10535;50.664;4.564;2023-05-27T11:45:17;20.60;99.90
20750;DHT22;10535;50.664;4.564;2023-05-27T11:47:46;20.70;99.90
20750;DHT22;10535;50.664;4.564;2023-05-27T11:50:24;20.70;99.90
20750;DHT22;10535;50.664;4.564;2023-05-27T11:52:54;20.70;99.90
20750;DHT22;10535;50.664;4.564;2023-05-27T11:55:25;20.50;99.90
20750;DHT22;10535;50.664;4.564;2023-05-27T11:57:53;20.40;99.90
20750;DHT22;10535;50.664;4.564;2023-05-27T12:00:19;20.20;99.90
20750;DHT22;10535;50.664;4.564;2023-05-27T12:02:45;20.40;99.90
20750;DHT22;10535;50.664;4.564;2023-05-27T12:05:12;20.70;99.90
20750;DHT22;10535;50.664;4.564;2023-05-27T12:07:38;20.80;99.90
20750;DHT22;10535;50.664;4.564;2023-05-27T12:10:07;20.80;99.90
20750;DHT22;10535;50.664;4.564;2023-05-27T12:12:33;21.10;99.90
20750;DHT22;10535;50.664;4.564;2023-05-27T12:15:00;21.30;99.90
20750;DHT22;10535;50.664;4.564;2023-05-27T12:17:26;21.50;99.90
20750;DHT22;10535;50.664;4.564;2023-05-27T12:19:52;21.60;99.90
20750;DHT22;10535;50.664;4.564;2023-05-27T12:22:19;21.30;99.90
20750;DHT22;10535;50.664;4.564;2023-05-27T12:24:46;21.10;99.90
20750;DHT22;10535;50.664;4.564;2023-05-27T12:27:17;21.00;99.90
20750;DHT22;10535;50.664;4.564;2023-05-27T12:29:43;20.90;99.90
20750;DHT22;10535;50.664;4.564;2023-05-27T12:32:10;21.00;99.90
20750;DHT22;10535;50.664;4.564;2023-05-27T12:34:37;21.10;99.90
20750;DHT22;10535;50.664;4.564;2023-05-27T12:37:06;21.20;99.90
20750;DHT22;10535;50.664;4.564;2023-05-27T12:39:31;21.30;99.90
20750;DHT22;10535;50.664;4.564;2023-05-27T12:41:57;21.60;99.90
20750;DHT22;10535;50.664;4.564;2023-05-27T12:44:23;21.90;99.90
20750;DHT22;10535;50.664;4.564;2023-05-27T12:46:55;22.20;99.90
20750;DHT22;10535;50.664;4.564;2023-05-27T12:49:22;22.50;99.90
20750;DHT22;10535;50.664;4.564;2023-05-27T12:51:48;22.20;99.90
20750;DHT22;10535;50.664;4.564;2023-05-27T12:54:14;22.20;99.90
20750;DHT22;10535;50.664;4.564;2023-05-27T12:56:40;22.30;99.90
20750;DHT22;10535;50.664;4.564;2023-05-27T12:59:06;22.40;99.90
20750;DHT22;10535;50.664;4.564;2023-05-27T13:01:32;22.40;99.90
20750;DHT22;10535;50.664;4.564;2023-05-27T13:03:57;22.30;99.90
20750;DHT22;10535;50.664;4.564;2023-05-27T13:06:23;22.40;99.90
20750;DHT22;10535;50.664;4.564;2023-05-27T13:08:52;22.30;99.90
20750;DHT22;10535;50.664;4.564;2023-05-27T13:11:26;21.70;99.90
20750;DHT22;10535;50.664;4.564;2023-05-27T13:13:51;21.50;99.90
20750;DHT22;10535;50.664;4.564;2023-05-27T13:16:17;21.60;99.90
20750;DHT22;10535;50.664;4.564;2023-05-27T13:18:47;21.70;99.90
20750;DHT22;10535;50.664;4.564;2023-05-27T13:21:15;21.70;99.90
20750;DHT22;10535;50.664;4.564;2023-05-27T13:23:44;22.00;99.90
20750;DHT22;10535;50.664;4.564;2023-05-27T13:26:10;21.90;99.90
20750;DHT22;10535;50.664;4.564;2023-05-27T13:28:37;22.00;99.90
20750;DHT22;10535;50.664;4.564;2023-05-27T13:31:08;22.20;99.90
20750;DHT22;10535;50.664;4.564;2023-05-27T13:33:35;22.30;99.90
20750;DHT22;10535;50.664;4.564;2023-05-27T13:36:24;22.20;99.90
20750;DHT22;10535;50.664;4.564;2023-05-27T13:39:07;22.40;99.90
20750;DHT22;10535;50.664;4.564;2023-05-27T13:41:33;22.30;99.90
20750;DHT22;10535;50.664;4.564;2023-05-27T13:44:01;22.10;99.90
20750;DHT22;10535;50.664;4.564;2023-05-27T13:46:26;22.30;99.90
20750;DHT22;10535;50.664;4.564;2023-05-27T13:49:01;22.70;99.90
20750;DHT22;10535;50.664;4.564;2023-05-27T13:51:48;22.20;99.90
20750;DHT22;10535;50.664;4.564;2023-05-27T13:54:16;21.80;99.90
20750;DHT22;10535;50.664;4.564;2023-05-27T13:56:41;21.70;99.90
20750;DHT22;10535;50.664;4.564;2023-05-27T13:59:10;21.90;99.90
20750;DHT22;10535;50.664;4.564;2023-05-27T14:01:51;22.10;99.90
20750;DHT22;10535;50.664;4.564;2023-05-27T14:04:18;21.90;99.90
20750;DHT22;10535;50.664;4.564;2023-05-27T14:06:49;21.70;99.90
20750;DHT22;10535;50.664;4.564;2023-05-27T14:09:15;21.80;99.90
20750;DHT22;10535;50.664;4.564;2023-05-27T14:11:44;21.90;99.90
20750;DHT22;10535;50.664;4.564;2023-05-27T14:14:10;21.90;99.90
20750;DHT22;10535;50.664;4.564;2023-05-27T14:16:38;21.80;99.90
20750;DHT22;10535;50.664;4.564;2023-05-27T14:19:10;22.10;99.90
20750;DHT22;10535;50.664;4.564;2023-05-27T14:21:36;22.00;99.90
20750;DHT22;10535;50.664;4.564;2023-05-27T14:24:05;22.10;99.90
20750;DHT22;10535;50.664;4.564;2023-05-27T14:26:31;22.00;99.90
20750;DHT22;10535;50.664;4.564;2023-05-27T14:29:04;22.10;99.90
20750;DHT22;10535;50.664;4.564;2023-05-27T14:31:42;22.20;99.90
20750;DHT22;10535;50.664;4.564;2023-05-27T14:34:07;22.50;99.90
20750;DHT22;10535;50.664;4.564;2023-05-27T14:36:33;22.40;99.90
20750;DHT22;10535;50.664;4.564;2023-05-27T14:39:22;22.30;99.90
20750;DHT22;10535;50.664;4.564;2023-05-27T14:41:50;22.40;99.90
20750;DHT22;10535;50.664;4.564;2023-05-27T14:44:32;22.60;99.90
20750;DHT22;10535;50.664;4.564;2023-05-27T14:47:12;22.90;99.90
20750;DHT22;10535;50.664;4.564;2023-05-27T14:49:47;22.90;99.90
20750;DHT22;10535;50.664;4.564;2023-05-27T14:52:23;23.10;99.90
20750;DHT22;10535;50.664;4.564;2023-05-27T14:54:49;23.20;99.90
20750;DHT22;10535;50.664;4.564;2023-05-27T14:57:14;22.80;99.90
20750;DHT22;10535;50.664;4.564;2023-05-27T14:59:44;22.70;99.90
20750;DHT22;10535;50.664;4.564;2023-05-27T15:02:14;22.70;99.90
20750;DHT22;10535;50.664;4.564;2023-05-27T15:05:02;22.70;99.90
20750;DHT22;10535;50.664;4.564;2023-05-27T15:07:30;22.60;99.90
20750;DHT22;10535;50.664;4.564;2023-05-27T15:09:55;22.80;99.90
20750;DHT22;10535;50.664;4.564;2023-05-27T15:12:21;23.00;99.90
20750;DHT22;10535;50.664;4.564;2023-05-27T15:14:47;23.10;99.90
20750;DHT22;10535;50.664;4.564;2023-05-27T15:17:13;23.00;99.90
20750;DHT22;10535;50.664;4.564;2023-05-27T15:19:39;23.10;99.90
20750;DHT22;10535;50.664;4.564;2023-05-27T15:22:07;23.20;99.90
20750;DHT22;10535;50.664;4.564;2023-05-27T15:24:33;23.00;99.90
20750;DHT22;10535;50.664;4.564;2023-05-27T15:27:00;22.90;99.90
20750;DHT22;10535;50.664;4.564;2023-05-27T15:29:40;22.90;99.90
20750;DHT22;10535;50.664;4.564;2023-05-27T15:32:06;23.10;99.90
20750;DHT22;10535;50.664;4.564;2023-05-27T15:34:31;22.90;99.90
20750;DHT22;10535;50.664;4.564;2023-05-27T15:36:57;23.10;99.90
20750;DHT22;10535;50.664;4.564;2023-05-27T15:39:27;22.70;99.90
20750;DHT22;10535;50.664;4.564;2023-05-27T15:42:33;22.80;99.90
20750;DHT22;10535;50.664;4.564;2023-05-27T15:45:39;22.90;99.90